< < Back
Terminal Aerodrome Forecast


Current Version              Previous Versions:   1  2  3  4  5  6  7  8  9  

Terminal Aerodrome Forecast

931
FTUS44 KBMX 211100
TAFTCL
TAF
KTCL 211138Z 2112/2212 02004KT P6SM SCT012 OVC030
      TEMPO 2112/2115 OVC012
     FM211600 08004KT P6SM OVC025
     FM220400 10004KT P6SM OVC015
     FM221000 12004KT 5SM BR OVC008=

Latest METAR

032
SAUS70 KWBC 211400 RRH
MTRTCL
METAR KTCL 211353Z 00000KT 6SM BR OVC007 07/04 A3018 RMK AO2 SLP221
T00670044


USA.gov is the U.S. government's official web portal to all federal, state and local government web resources and services.